Mediterranean Sea — WDG229 — position and weather

sailwx.info

Track history (hours):
 
Tides and Currents Weather Stations Pressure Air Temp Water Temp Dewpoint Dewpoint Depression Visibility Wind Speed Wind Dir Waves Ship Positions

Mediterranean Sea

Last reported at 2014-Dec-18 23:33 UTC. Time now 2014-Dec-19 00:31 UTC.
Position N 40°47' W 073°60'.

Length 33 m; draft 6 m.

Type: Ship. MMSI: 367010390.

Date/timePositionNaut miles runAvg speedWind from/ knotsBaromVisibWave heightAir tempDewpointWater temp
2014-Dec-18 23:33N 40°47' W 073°60'5 4.6
2014-Dec-18 22:34N 40°43' W 073°59'7 6.3
2014-Dec-18 21:28N 40°48' W 073°54'24 8.3
2014-Dec-18 18:33N 41°01' W 073°27'19 9.0
2014-Dec-18 16:24N 41°08' W 073°03'7 8.9
2014-Dec-18 15:33N 41°13' W 072°55'5 3.2
2014-Dec-18 14:07N 41°18' W 072°54'0 0.0
2014-Dec-18 13:31N 41°18' W 072°54'0 0.0
2014-Dec-18 12:29N 41°18' W 072°54'0 0.0
2014-Dec-18 11:33N 41°18' W 072°54'0 0.0
2014-Dec-18 10:33N 41°18' W 072°54'0 0.0
2014-Dec-18 09:33N 41°18' W 072°54'0 0.0
2014-Dec-18 08:34N 41°18' W 072°54'0 0.0
2014-Dec-18 07:33N 41°18' W 072°54'0 0.1
2014-Dec-18 06:30N 41°18' W 072°55'0 0.2
2014-Dec-18 05:31N 41°18' W 072°55'0 0.0
2014-Dec-18 04:31N 41°18' W 072°55'0 0.0
2014-Dec-18 03:32N 41°18' W 072°55'0 0.0
2014-Dec-18 02:17N 41°18' W 072°55'0 0.0
2014-Dec-18 01:33N 41°18' W 072°55'0 0.0
2014-Dec-18 00:33N 41°18' W 072°55'0 0.0
2014-Dec-17 23:24N 41°18' W 072°55'0 0.0
2014-Dec-17 22:27N 41°18' W 072°55'0 0.0
2014-Dec-17 21:24N 41°18' W 072°55'0 0.0
2014-Dec-17 20:29N 41°18' W 072°55'0 0.0
2014-Dec-17 19:31N 41°18' W 072°55'0 0.0
2014-Dec-17 18:32N 41°18' W 072°55'0 0.0
2014-Dec-17 17:33N 41°18' W 072°55'0 0.0
2014-Dec-17 16:33N 41°18' W 072°55'0 0.0
2014-Dec-17 15:31N 41°18' W 072°55'0 0.0
2014-Dec-17 14:32N 41°18' W 072°55'0 0.0
2014-Dec-17 13:33N 41°18' W 072°55'0 0.0
2014-Dec-17 12:32N 41°18' W 072°55'0 0.0
2014-Dec-17 10:30N 41°18' W 072°55'0 0.0
2014-Dec-17 08:29N 41°18' W 072°55'0 0.1
2014-Dec-17 06:31N 41°18' W 072°55'4 4.2
2014-Dec-17 05:33N 41°14' W 072°55'6 6.1
2014-Dec-17 04:33N 41°09' W 073°00'27 7.7
2014-Dec-17 01:04N 40°57' W 073°33'11 7.3
2014-Dec-16 23:33N 40°52' W 073°45'6 6.0
2014-Dec-16 22:33N 40°48' W 073°51'6 6.2
2014-Dec-16 21:34N 40°45' W 073°58'7 7.3
2014-Dec-16 20:34N 40°39' W 074°04'2 1.9
2014-Dec-16 19:34N 40°39' W 074°07'0 0.0
2014-Dec-16 18:33N 40°39' W 074°07'0 0.0
2014-Dec-16 17:33N 40°39' W 074°07'0 0.0
2014-Dec-16 16:34N 40°39' W 074°07'0 0.0
2014-Dec-16 15:34N 40°39' W 074°07'0 0.0
2014-Dec-16 14:33N 40°39' W 074°07'0 0.0
2014-Dec-16 13:33N 40°39' W 074°07'0 0.0
2014-Dec-16 12:34N 40°39' W 074°07'0 0.0
2014-Dec-16 11:33N 40°39' W 074°07'0 0.0
2014-Dec-16 10:33N 40°39' W 074°07'0 0.0
2014-Dec-16 09:33N 40°39' W 074°07'0 0.0
2014-Dec-16 08:33N 40°39' W 074°07'0 0.0
2014-Dec-16 07:31N 40°39' W 074°07'0 0.0
2014-Dec-16 06:33N 40°39' W 074°07'0 0.0
2014-Dec-16 05:33N 40°39' W 074°07'0 0.0
2014-Dec-16 04:33N 40°39' W 074°07'0 0.0
2014-Dec-16 03:23N 40°39' W 074°07'0 0.0
2014-Dec-16 02:12N 40°39' W 074°07'0 0.0
2014-Dec-16 01:27N 40°39' W 074°07'0 0.0
2014-Dec-15 23:34N 40°39' W 074°07'0 0.0
2014-Dec-15 22:33N 40°39' W 074°07'0 0.0
2014-Dec-15 21:32N 40°39' W 074°07'0 0.0
2014-Dec-15 20:33N 40°39' W 074°07'0 0.0
2014-Dec-15 19:33N 40°39' W 074°07'0 0.0
2014-Dec-15 18:33N 40°39' W 074°07'0 0.0
2014-Dec-15 17:33N 40°39' W 074°07'0 0.0
2014-Dec-15 16:33N 40°39' W 074°07'0 0.0
2014-Dec-15 15:33N 40°39' W 074°07'0 0.0
2014-Dec-15 14:33N 40°39' W 074°07'0 0.2
2014-Dec-15 13:33N 40°39' W 074°07'2 1.8
2014-Dec-15 12:33N 40°39' W 074°05'8 8.2
2014-Dec-15 11:33N 40°46' W 074°00'1 0.8
2014-Dec-15 10:31N 40°47' W 073°60'0 0.0
2014-Dec-15 09:27N 40°47' W 073°60'0 0.0
2014-Dec-15 08:13N 40°47' W 073°60'0 0.0
2014-Dec-15 07:28N 40°47' W 073°60'0 0.0
2014-Dec-15 06:16N 40°47' W 073°60'0 0.3
2014-Dec-15 05:30N 40°47' W 073°60'0 0.0
2014-Dec-15 04:33N 40°47' W 073°60'0 0.0
2014-Dec-15 03:25N 40°47' W 073°60'0 0.0
2014-Dec-15 02:33N 40°47' W 073°60'0 0.0
2014-Dec-15 01:34N 40°47' W 073°60'0 0.0
2014-Dec-15 00:22N 40°47' W 073°60'0 0.0
2014-Dec-14 23:34N 40°47' W 073°60'0 0.0
2014-Dec-14 22:33N 40°47' W 073°60'0 0.0
2014-Dec-14 21:33N 40°47' W 073°60'0 0.1
2014-Dec-14 20:33N 40°47' W 073°60'0 0.0
2014-Dec-14 12:18N 40°47' W 073°60'0 0.0
2014-Dec-14 11:28N 40°47' W 073°60'0 0.1
2014-Dec-14 10:33N 40°47' W 073°60'0 0.2
2014-Dec-14 09:33N 40°47' W 073°60'1 1.0
2014-Dec-14 08:33N 40°46' W 074°00'2 2.2
2014-Dec-14 07:33N 40°45' W 073°58'5 5.0
2014-Dec-14 06:33N 40°48' W 073°52'20 9.3
2014-Dec-14 04:21N 41°00' W 073°30'11 9.8
2014-Dec-14 03:11N 41°04' W 073°16'6 9.4
2014-Dec-14 02:33N 41°06' W 073°08'12 9.0
2014-Dec-14 01:12N 41°13' W 072°55'5 6.4
2014-Dec-14 00:27N 41°18' W 072°54'0 0.0
2014-Dec-13 17:09N 41°18' W 072°54'0 0.0
2014-Dec-13 16:24N 41°18' W 072°54'0 0.0
2014-Dec-13 15:23N 41°18' W 072°54'0 0.0
2014-Dec-13 14:33N 41°18' W 072°54'0 0.0
2014-Dec-13 13:21N 41°18' W 072°54'0 0.0
2014-Dec-13 12:33N 41°18' W 072°54'0 0.0
2014-Dec-13 11:31N 41°18' W 072°54'0 0.0
2014-Dec-13 10:33N 41°18' W 072°54'0 0.0
2014-Dec-13 09:33N 41°18' W 072°54'0 0.0
2014-Dec-13 08:33N 41°18' W 072°54'0 0.0
2014-Dec-13 07:32N 41°18' W 072°54'1 0.9
2014-Dec-13 06:33N 41°17' W 072°55'4 3.9
2014-Dec-13 05:33N 41°13' W 072°56'0 0.1
2014-Dec-13 04:33N 41°13' W 072°56'0 0.1
2014-Dec-13 03:33N 41°13' W 072°56'0 0.1
2014-Dec-13 02:33N 41°13' W 072°56'0 0.0
2014-Dec-13 01:33N 41°13' W 072°56'0 0.0
2014-Dec-13 00:33N 41°13' W 072°56'0 0.0
2014-Dec-12 23:33N 41°13' W 072°56'0 0.0
2014-Dec-12 22:33N 41°13' W 072°56'0 0.0
2014-Dec-12 21:33N 41°13' W 072°56'0 0.2
2014-Dec-12 20:34N 41°13' W 072°56'3 3.4
2014-Dec-12 19:33N 41°10' W 072°59'14 7.2
2014-Dec-12 17:33N 41°04' W 073°16'31 7.4
2014-Dec-12 13:24N 40°48' W 073°51'5 6.4
2014-Dec-12 12:33N 40°46' W 073°57'5 4.5
2014-Dec-12 11:33N 40°42' W 074°00'6 5.7
2014-Dec-12 10:33N 40°39' W 074°07'0 0.2
2014-Dec-12 09:33N 40°39' W 074°07'0 0.0
2014-Dec-12 08:33N 40°39' W 074°07'0 0.0
2014-Dec-12 07:33N 40°39' W 074°07'0 0.0
2014-Dec-12 06:33N 40°39' W 074°07'0 0.0
2014-Dec-12 05:33N 40°39' W 074°07'0 0.0
2014-Dec-12 04:34N 40°39' W 074°07'0 0.0
2014-Dec-12 03:33N 40°39' W 074°07'0 0.0
2014-Dec-12 02:33N 40°39' W 074°07'0 0.0
2014-Dec-12 01:33N 40°39' W 074°07'0 0.0
2014-Dec-12 00:33N 40°39' W 074°07'0 0.0
2014-Dec-11 23:33N 40°39' W 074°07'0 0.3
2014-Dec-11 22:33N 40°39' W 074°07'0 0.0
2014-Dec-11 21:33N 40°39' W 074°07'0 0.0
2014-Dec-11 20:33N 40°39' W 074°07'0 0.0
2014-Dec-11 19:33N 40°39' W 074°07'3 2.5
2014-Dec-11 18:33N 40°38' W 074°10'0 0.0
2014-Dec-11 17:33N 40°38' W 074°10'0 0.0
2014-Dec-11 16:33N 40°38' W 074°10'0 0.0
2014-Dec-11 15:33N 40°38' W 074°10'0 0.0
2014-Dec-11 14:33N 40°38' W 074°10'0 0.0
2014-Dec-11 13:33N 40°38' W 074°10'0 0.0
2014-Dec-11 12:33N 40°38' W 074°10'0 0.0
2014-Dec-11 11:33N 40°38' W 074°10'2 2.3
2014-Dec-11 10:33N 40°39' W 074°07'1 1.0
2014-Dec-11 09:33N 40°39' W 074°06'4 3.7
2014-Dec-11 08:33N 40°41' W 074°02'7 6.4
2014-Dec-11 07:29N 40°47' W 073°56'49 9.3
2014-Dec-11 02:15N 41°09' W 072°59'6 8.2
2014-Dec-11 01:33N 41°14' W 072°55'4 3.7
2014-Dec-11 00:33N 41°18' W 072°55'0 0.0
2014-Dec-10 23:30N 41°18' W 072°55'0 0.0
2014-Dec-10 22:27N 41°18' W 072°55'0 0.0
2014-Dec-10 21:33N 41°18' W 072°55'0 0.0
2014-Dec-10 20:21N 41°18' W 072°55'0 0.0
2014-Dec-10 19:33N 41°18' W 072°55'0 0.0
2014-Dec-10 18:33N 41°18' W 072°55'0 0.0
2014-Dec-10 17:21N 41°18' W 072°55'0 0.0
2014-Dec-10 16:33N 41°18' W 072°55'0 0.0
2014-Dec-10 15:33N 41°18' W 072°55'0 0.0
2014-Dec-10 14:33N 41°18' W 072°55'0 0.0
2014-Dec-10 13:33N 41°18' W 072°55'0 0.0
2014-Dec-10 12:33N 41°18' W 072°55'2 1.9
2014-Dec-10 11:33N 41°16' W 072°55'6 5.5
2014-Dec-10 10:34N 41°10' W 072°56'5 5.3
2014-Dec-10 09:33N 41°07' W 073°02'9 6.7
2014-Dec-10 08:09N 41°05' W 073°14'4 7.3
2014-Dec-10 07:34N 41°03' W 073°19'7 7.3
2014-Dec-10 06:34N 41°01' W 073°28'18 0.8
2014-Dec-09 06:25N 40°49' W 073°47'0 0.0
2014-Dec-09 05:26N 40°49' W 073°47'0 0.0
2014-Dec-09 03:15N 40°49' W 073°47'0 0.0
2014-Dec-09 02:27N 40°49' W 073°47'0 0.1
2014-Dec-09 01:33N 40°49' W 073°47'0 0.0
2014-Dec-09 00:33N 40°49' W 073°47'  
Track history (hours):
 
Tides and Currents Weather Stations Pressure Air Temp Water Temp Dewpoint Dewpoint Depression Visibility Wind Speed Wind Dir Waves Ship Positions

Mediterranean Sea

Last reported at 2014-Dec-18 23:33 UTC. Time now 2014-Dec-19 00:31 UTC.
Position N 40°47' W 073°60'.

Length 33 m; draft 6 m.

Type: Ship. MMSI: 367010390.

Date/timePositionNaut miles runAvg speedWind from/ knotsBaromVisibWave heightAir tempDewpointWater temp
2014-Dec-18 23:33N 40°47' W 073°60'5 4.6
2014-Dec-18 22:34N 40°43' W 073°59'7 6.3
2014-Dec-18 21:28N 40°48' W 073°54'24 8.3
2014-Dec-18 18:33N 41°01' W 073°27'19 9.0
2014-Dec-18 16:24N 41°08' W 073°03'7 8.9
2014-Dec-18 15:33N 41°13' W 072°55'5 3.2
2014-Dec-18 14:07N 41°18' W 072°54'0 0.0
2014-Dec-18 13:31N 41°18' W 072°54'0 0.0
2014-Dec-18 12:29N 41°18' W 072°54'0 0.0
2014-Dec-18 11:33N 41°18' W 072°54'0 0.0
2014-Dec-18 10:33N 41°18' W 072°54'0 0.0
2014-Dec-18 09:33N 41°18' W 072°54'0 0.0
2014-Dec-18 08:34N 41°18' W 072°54'0 0.0
2014-Dec-18 07:33N 41°18' W 072°54'0 0.1
2014-Dec-18 06:30N 41°18' W 072°55'0 0.2
2014-Dec-18 05:31N 41°18' W 072°55'0 0.0
2014-Dec-18 04:31N 41°18' W 072°55'0 0.0
2014-Dec-18 03:32N 41°18' W 072°55'0 0.0
2014-Dec-18 02:17N 41°18' W 072°55'0 0.0
2014-Dec-18 01:33N 41°18' W 072°55'0 0.0
2014-Dec-18 00:33N 41°18' W 072°55'0 0.0
2014-Dec-17 23:24N 41°18' W 072°55'0 0.0
2014-Dec-17 22:27N 41°18' W 072°55'0 0.0
2014-Dec-17 21:24N 41°18' W 072°55'0 0.0
2014-Dec-17 20:29N 41°18' W 072°55'0 0.0
2014-Dec-17 19:31N 41°18' W 072°55'0 0.0
2014-Dec-17 18:32N 41°18' W 072°55'0 0.0
2014-Dec-17 17:33N 41°18' W 072°55'0 0.0
2014-Dec-17 16:33N 41°18' W 072°55'0 0.0
2014-Dec-17 15:31N 41°18' W 072°55'0 0.0
2014-Dec-17 14:32N 41°18' W 072°55'0 0.0
2014-Dec-17 13:33N 41°18' W 072°55'0 0.0
2014-Dec-17 12:32N 41°18' W 072°55'0 0.0
2014-Dec-17 10:30N 41°18' W 072°55'0 0.0
2014-Dec-17 08:29N 41°18' W 072°55'0 0.1
2014-Dec-17 06:31N 41°18' W 072°55'4 4.2
2014-Dec-17 05:33N 41°14' W 072°55'6 6.1
2014-Dec-17 04:33N 41°09' W 073°00'27 7.7
2014-Dec-17 01:04N 40°57' W 073°33'11 7.3
2014-Dec-16 23:33N 40°52' W 073°45'6 6.0
2014-Dec-16 22:33N 40°48' W 073°51'6 6.2
2014-Dec-16 21:34N 40°45' W 073°58'7 7.3
2014-Dec-16 20:34N 40°39' W 074°04'2 1.9
2014-Dec-16 19:34N 40°39' W 074°07'0 0.0
2014-Dec-16 18:33N 40°39' W 074°07'0 0.0
2014-Dec-16 17:33N 40°39' W 074°07'0 0.0
2014-Dec-16 16:34N 40°39' W 074°07'0 0.0
2014-Dec-16 15:34N 40°39' W 074°07'0 0.0
2014-Dec-16 14:33N 40°39' W 074°07'0 0.0
2014-Dec-16 13:33N 40°39' W 074°07'0 0.0
2014-Dec-16 12:34N 40°39' W 074°07'0 0.0
2014-Dec-16 11:33N 40°39' W 074°07'0 0.0
2014-Dec-16 10:33N 40°39' W 074°07'0 0.0
2014-Dec-16 09:33N 40°39' W 074°07'0 0.0
2014-Dec-16 08:33N 40°39' W 074°07'0 0.0
2014-Dec-16 07:31N 40°39' W 074°07'0 0.0
2014-Dec-16 06:33N 40°39' W 074°07'0 0.0
2014-Dec-16 05:33N 40°39' W 074°07'0 0.0
2014-Dec-16 04:33N 40°39' W 074°07'0 0.0
2014-Dec-16 03:23N 40°39' W 074°07'0 0.0
2014-Dec-16 02:12N 40°39' W 074°07'0 0.0
2014-Dec-16 01:27N 40°39' W 074°07'0 0.0
2014-Dec-15 23:34N 40°39' W 074°07'0 0.0
2014-Dec-15 22:33N 40°39' W 074°07'0 0.0
2014-Dec-15 21:32N 40°39' W 074°07'0 0.0
2014-Dec-15 20:33N 40°39' W 074°07'0 0.0
2014-Dec-15 19:33N 40°39' W 074°07'0 0.0
2014-Dec-15 18:33N 40°39' W 074°07'0 0.0
2014-Dec-15 17:33N 40°39' W 074°07'0 0.0
2014-Dec-15 16:33N 40°39' W 074°07'0 0.0
2014-Dec-15 15:33N 40°39' W 074°07'0 0.0
2014-Dec-15 14:33N 40°39' W 074°07'0 0.2
2014-Dec-15 13:33N 40°39' W 074°07'2 1.8
2014-Dec-15 12:33N 40°39' W 074°05'8 8.2
2014-Dec-15 11:33N 40°46' W 074°00'1 0.8
2014-Dec-15 10:31N 40°47' W 073°60'0 0.0
2014-Dec-15 09:27N 40°47' W 073°60'0 0.0
2014-Dec-15 08:13N 40°47' W 073°60'0 0.0
2014-Dec-15 07:28N 40°47' W 073°60'0 0.0
2014-Dec-15 06:16N 40°47' W 073°60'0 0.3
2014-Dec-15 05:30N 40°47' W 073°60'0 0.0
2014-Dec-15 04:33N 40°47' W 073°60'0 0.0
2014-Dec-15 03:25N 40°47' W 073°60'0 0.0
2014-Dec-15 02:33N 40°47' W 073°60'0 0.0
2014-Dec-15 01:34N 40°47' W 073°60'0 0.0
2014-Dec-15 00:22N 40°47' W 073°60'0 0.0
2014-Dec-14 23:34N 40°47' W 073°60'0 0.0
2014-Dec-14 22:33N 40°47' W 073°60'0 0.0
2014-Dec-14 21:33N 40°47' W 073°60'0 0.1
2014-Dec-14 20:33N 40°47' W 073°60'0 0.0
2014-Dec-14 12:18N 40°47' W 073°60'0 0.0
2014-Dec-14 11:28N 40°47' W 073°60'0 0.1
2014-Dec-14 10:33N 40°47' W 073°60'0 0.2
2014-Dec-14 09:33N 40°47' W 073°60'1 1.0
2014-Dec-14 08:33N 40°46' W 074°00'2 2.2
2014-Dec-14 07:33N 40°45' W 073°58'5 5.0
2014-Dec-14 06:33N 40°48' W 073°52'20 9.3
2014-Dec-14 04:21N 41°00' W 073°30'11 9.8
2014-Dec-14 03:11N 41°04' W 073°16'6 9.4
2014-Dec-14 02:33N 41°06' W 073°08'12 9.0
2014-Dec-14 01:12N 41°13' W 072°55'5 6.4
2014-Dec-14 00:27N 41°18' W 072°54'0 0.0
2014-Dec-13 17:09N 41°18' W 072°54'0 0.0
2014-Dec-13 16:24N 41°18' W 072°54'0 0.0
2014-Dec-13 15:23N 41°18' W 072°54'0 0.0
2014-Dec-13 14:33N 41°18' W 072°54'0 0.0
2014-Dec-13 13:21N 41°18' W 072°54'0 0.0
2014-Dec-13 12:33N 41°18' W 072°54'0 0.0
2014-Dec-13 11:31N 41°18' W 072°54'0 0.0
2014-Dec-13 10:33N 41°18' W 072°54'0 0.0
2014-Dec-13 09:33N 41°18' W 072°54'0 0.0
2014-Dec-13 08:33N 41°18' W 072°54'0 0.0
2014-Dec-13 07:32N 41°18' W 072°54'1 0.9
2014-Dec-13 06:33N 41°17' W 072°55'4 3.9
2014-Dec-13 05:33N 41°13' W 072°56'0 0.1
2014-Dec-13 04:33N 41°13' W 072°56'0 0.1
2014-Dec-13 03:33N 41°13' W 072°56'0 0.1
2014-Dec-13 02:33N 41°13' W 072°56'0 0.0
2014-Dec-13 01:33N 41°13' W 072°56'0 0.0
2014-Dec-13 00:33N 41°13' W 072°56'0 0.0
2014-Dec-12 23:33N 41°13' W 072°56'0 0.0
2014-Dec-12 22:33N 41°13' W 072°56'0 0.0
2014-Dec-12 21:33N 41°13' W 072°56'0 0.2
2014-Dec-12 20:34N 41°13' W 072°56'3 3.4
2014-Dec-12 19:33N 41°10' W 072°59'14 7.2
2014-Dec-12 17:33N 41°04' W 073°16'31 7.4
2014-Dec-12 13:24N 40°48' W 073°51'5 6.4
2014-Dec-12 12:33N 40°46' W 073°57'5 4.5
2014-Dec-12 11:33N 40°42' W 074°00'6 5.7
2014-Dec-12 10:33N 40°39' W 074°07'0 0.2
2014-Dec-12 09:33N 40°39' W 074°07'0 0.0
2014-Dec-12 08:33N 40°39' W 074°07'0 0.0
2014-Dec-12 07:33N 40°39' W 074°07'0 0.0
2014-Dec-12 06:33N 40°39' W 074°07'0 0.0
2014-Dec-12 05:33N 40°39' W 074°07'0 0.0
2014-Dec-12 04:34N 40°39' W 074°07'0 0.0
2014-Dec-12 03:33N 40°39' W 074°07'0 0.0
2014-Dec-12 02:33N 40°39' W 074°07'0 0.0
2014-Dec-12 01:33N 40°39' W 074°07'0 0.0
2014-Dec-12 00:33N 40°39' W 074°07'0 0.0
2014-Dec-11 23:33N 40°39' W 074°07'0 0.3
2014-Dec-11 22:33N 40°39' W 074°07'0 0.0
2014-Dec-11 21:33N 40°39' W 074°07'0 0.0
2014-Dec-11 20:33N 40°39' W 074°07'0 0.0
2014-Dec-11 19:33N 40°39' W 074°07'3 2.5
2014-Dec-11 18:33N 40°38' W 074°10'0 0.0
2014-Dec-11 17:33N 40°38' W 074°10'0 0.0
2014-Dec-11 16:33N 40°38' W 074°10'0 0.0
2014-Dec-11 15:33N 40°38' W 074°10'0 0.0
2014-Dec-11 14:33N 40°38' W 074°10'0 0.0
2014-Dec-11 13:33N 40°38' W 074°10'0 0.0
2014-Dec-11 12:33N 40°38' W 074°10'0 0.0
2014-Dec-11 11:33N 40°38' W 074°10'2 2.3
2014-Dec-11 10:33N 40°39' W 074°07'1 1.0
2014-Dec-11 09:33N 40°39' W 074°06'4 3.7
2014-Dec-11 08:33N 40°41' W 074°02'7 6.4
2014-Dec-11 07:29N 40°47' W 073°56'49 9.3
2014-Dec-11 02:15N 41°09' W 072°59'6 8.2
2014-Dec-11 01:33N 41°14' W 072°55'4 3.7
2014-Dec-11 00:33N 41°18' W 072°55'0 0.0
2014-Dec-10 23:30N 41°18' W 072°55'0 0.0
2014-Dec-10 22:27N 41°18' W 072°55'0 0.0
2014-Dec-10 21:33N 41°18' W 072°55'0 0.0
2014-Dec-10 20:21N 41°18' W 072°55'0 0.0
2014-Dec-10 19:33N 41°18' W 072°55'0 0.0
2014-Dec-10 18:33N 41°18' W 072°55'0 0.0
2014-Dec-10 17:21N 41°18' W 072°55'0 0.0
2014-Dec-10 16:33N 41°18' W 072°55'0 0.0
2014-Dec-10 15:33N 41°18' W 072°55'0 0.0
2014-Dec-10 14:33N 41°18' W 072°55'0 0.0
2014-Dec-10 13:33N 41°18' W 072°55'0 0.0
2014-Dec-10 12:33N 41°18' W 072°55'2 1.9
2014-Dec-10 11:33N 41°16' W 072°55'6 5.5
2014-Dec-10 10:34N 41°10' W 072°56'5 5.3
2014-Dec-10 09:33N 41°07' W 073°02'9 6.7
2014-Dec-10 08:09N 41°05' W 073°14'4 7.3
2014-Dec-10 07:34N 41°03' W 073°19'7 7.3
2014-Dec-10 06:34N 41°01' W 073°28'18 0.8
2014-Dec-09 06:25N 40°49' W 073°47'0 0.0
2014-Dec-09 05:26N 40°49' W 073°47'0 0.0
2014-Dec-09 03:15N 40°49' W 073°47'0 0.0
2014-Dec-09 02:27N 40°49' W 073°47'0 0.1
2014-Dec-09 01:33N 40°49' W 073°47'0 0.0
2014-Dec-09 00:33N 40°49' W 073°47'  

Dump ship's entire track history